Terminal Aerodrome Forecast
Issued by NWS Miami, FL

Current Version | Previous Version | Text Only | Print | Product List | Glossary On
Versions: 1 2 3 4 5 6 7 8 9 10 11 12 13 14 15 16 17 18 19 20 21 22 23 24 25 26 27 28 29
000
FTUS42 KMFL 100528
TAFPBI
TAF
KPBI 100528Z 1006/1106 31007KT P6SM VCSH FEW010 BKN040 BKN060
      TEMPO 1006/1010 4SM RA BR SCT005 BKN010
     FM101400 04016G26KT P6SM VCSH SCT020 BKN120=

USA.gov is the U.S. government's official web portal to all federal, state and local government web resources and services.